createdAt,value
2022-10-07T00:00:15.026Z,99.99
2022-10-07T00:02:08.053Z,99.99
2022-10-07T00:03:07.968Z,99.99
2022-10-07T00:05:12.454Z,99.99
2022-10-07T00:06:11.983Z,99.99
2022-10-07T00:08:15.999Z,99.99
2022-10-07T00:09:16.010Z,99.99
2022-10-07T00:11:20.502Z,99.99
2022-10-07T00:12:20.031Z,99.99
2022-10-07T00:14:24.034Z,99.99
2022-10-07T00:15:24.043Z,99.99
2022-10-07T00:17:28.582Z,99.99
2022-10-07T00:18:28.063Z,99.99
2022-10-07T00:20:32.078Z,99.99
2022-10-07T00:21:32.089Z,99.99
2022-10-07T00:23:37.082Z,99.99
2022-10-07T00:24:36.112Z,99.99
2022-10-07T00:26:40.141Z,99.99
2022-10-07T00:27:40.149Z,99.99
2022-10-07T00:29:33.622Z,99.99
2022-10-07T00:30:33.326Z,99.99
2022-10-07T00:32:26.245Z,99.99
2022-10-07T00:33:26.245Z,99.99
2022-10-07T00:35:30.708Z,99.99
2022-10-07T00:36:30.256Z,99.99
2022-10-07T00:38:34.244Z,99.99
2022-10-07T00:39:34.251Z,99.99
2022-10-07T00:41:38.738Z,99.99
2022-10-07T00:42:38.276Z,99.99
2022-10-07T00:44:42.290Z,99.99
2022-10-07T00:45:42.352Z,99.99
2022-10-07T00:47:47.029Z,99.99
2022-10-07T00:48:46.315Z,99.99
2022-10-07T00:50:50.333Z,99.99
2022-10-07T00:51:50.346Z,99.99
2022-10-07T00:53:54.842Z,99.99
2022-10-07T00:54:54.364Z,99.99
2022-10-07T00:56:58.373Z,99.99
2022-10-07T00:57:58.384Z,99.99
2022-10-07T01:00:02.876Z,99.99
2022-10-07T01:01:02.599Z,99.99
2022-10-07T01:03:06.416Z,99.99
2022-10-07T01:04:06.424Z,99.99
2022-10-07T01:06:10.917Z,99.99
2022-10-07T01:07:10.444Z,99.99
2022-10-07T01:09:14.447Z,99.99
2022-10-07T01:10:14.458Z,99.99
2022-10-07T01:12:07.932Z,99.99
2022-10-07T01:13:07.408Z,99.99
2022-10-07T01:15:00.646Z,99.99
2022-10-07T01:16:00.563Z,99.99
2022-10-07T01:18:05.043Z,99.99
2022-10-07T01:19:04.634Z,99.99
2022-10-07T01:21:08.578Z,99.99
2022-10-07T01:22:08.594Z,99.99
2022-10-07T01:24:02.068Z,99.99
2022-10-07T01:25:01.730Z,99.99
2022-10-07T01:27:05.743Z,99.99
2022-10-07T01:28:05.801Z,99.99
2022-10-07T01:30:10.241Z,99.99
2022-10-07T01:31:09.859Z,99.99
2022-10-07T01:33:13.812Z,99.99
2022-10-07T01:34:13.824Z,99.99
2022-10-07T01:36:18.313Z,99.99
2022-10-07T01:37:17.846Z,99.99
2022-10-07T01:39:21.854Z,99.99
2022-10-07T01:40:21.883Z,99.99
2022-10-07T01:42:14.836Z,99.99
2022-10-07T01:43:14.805Z,99.99
2022-10-07T01:45:07.933Z,99.99
2022-10-07T01:46:07.999Z,99.99
2022-10-07T01:48:12.947Z,99.99
2022-10-07T01:49:12.454Z,99.99
2022-10-07T01:50:12.475Z,99.99
2022-10-07T01:51:12.495Z,99.99
2022-10-07T01:52:12.511Z,99.99
2022-10-07T01:53:12.536Z,99.99
2022-10-07T01:54:12.554Z,99.99
2022-10-07T01:55:12.569Z,99.99
2022-10-07T01:56:13.113Z,99.99
2022-10-07T01:57:12.625Z,99.99
2022-10-07T01:58:12.645Z,99.99
2022-10-07T01:59:12.657Z,99.99
2022-10-07T02:00:12.674Z,99.99
2022-10-07T02:01:12.740Z,99.99
2022-10-07T02:02:12.712Z,99.99
2022-10-07T02:03:12.755Z,99.99
2022-10-07T02:04:12.767Z,99.99
2022-10-07T02:05:12.774Z,99.99
2022-10-07T02:06:12.798Z,99.99
2022-10-07T02:07:12.819Z,99.99
2022-10-07T02:08:12.842Z,99.99
2022-10-07T02:09:12.860Z,99.99
2022-10-07T02:10:12.880Z,99.99
2022-10-07T02:11:12.899Z,99.99
2022-10-07T02:12:12.920Z,99.99
2022-10-07T02:13:12.938Z,99.99
2022-10-07T02:14:12.961Z,99.99
2022-10-07T02:15:12.978Z,99.99
2022-10-07T02:16:13.052Z,99.99
2022-10-07T02:17:13.023Z,99.99
2022-10-07T02:18:13.040Z,99.99
2022-10-07T02:19:13.057Z,99.99
2022-10-07T02:20:13.107Z,99.99
2022-10-07T02:21:13.101Z,99.99
2022-10-07T02:22:13.122Z,99.99
2022-10-07T02:23:13.145Z,99.99
2022-10-07T02:24:13.163Z,99.99
2022-10-07T02:25:13.181Z,99.99
2022-10-07T02:26:13.209Z,99.99
2022-10-07T02:27:13.222Z,99.99
2022-10-07T02:28:13.308Z,99.99
2022-10-07T02:29:13.263Z,99.99
2022-10-07T02:30:13.284Z,99.99
2022-10-07T02:31:13.375Z,99.99
2022-10-07T02:32:13.327Z,99.99
2022-10-07T02:33:13.347Z,99.99
2022-10-07T02:34:18.908Z,99.99
2022-10-07T02:35:13.386Z,99.99
2022-10-07T02:36:13.407Z,99.99
2022-10-07T02:37:13.421Z,99.99
2022-10-07T02:38:13.447Z,99.99
2022-10-07T02:39:13.467Z,99.99
2022-10-07T02:40:13.487Z,99.99
2022-10-07T02:41:13.506Z,99.99
2022-10-07T02:42:13.528Z,99.99
2022-10-07T02:43:13.547Z,99.99
2022-10-07T02:44:13.577Z,99.99
2022-10-07T02:45:13.587Z,99.99
2022-10-07T02:46:13.673Z,99.99
2022-10-07T02:47:13.632Z,99.99
2022-10-07T02:48:13.649Z,99.99
2022-10-07T02:49:13.671Z,99.99
2022-10-07T02:50:13.688Z,99.99
2022-10-07T02:51:16.267Z,99.99
2022-10-07T02:52:13.732Z,99.99
2022-10-07T02:53:13.748Z,99.99
2022-10-07T02:54:13.771Z,99.99
2022-10-07T02:55:13.791Z,99.99
2022-10-07T02:56:13.809Z,99.99
2022-10-07T02:57:13.830Z,99.99
2022-10-07T02:58:13.852Z,99.99
2022-10-07T02:59:13.871Z,99.99
2022-10-07T03:00:13.894Z,99.99
2022-10-07T03:01:13.947Z,99.99
2022-10-07T03:02:13.930Z,99.99
2022-10-07T03:03:14.001Z,99.99
2022-10-07T03:04:13.977Z,99.99
2022-10-07T03:05:13.995Z,99.99
2022-10-07T03:06:14.014Z,99.99
2022-10-07T03:07:14.036Z,99.99
2022-10-07T03:08:14.058Z,99.99
2022-10-07T03:09:14.104Z,99.99
2022-10-07T03:10:14.091Z,99.99
2022-10-07T03:11:14.113Z,99.99
2022-10-07T03:12:14.131Z,99.99
2022-10-07T03:13:14.151Z,99.99
2022-10-07T03:14:14.169Z,99.99
2022-10-07T03:15:14.191Z,99.99
2022-10-07T03:16:14.268Z,99.99
2022-10-07T03:17:14.255Z,99.99
2022-10-07T03:18:14.252Z,99.99
2022-10-07T03:19:14.272Z,99.99
2022-10-07T03:20:14.292Z,99.99
2022-10-07T03:21:14.313Z,99.99
2022-10-07T03:22:14.335Z,99.99
2022-10-07T03:23:14.363Z,99.99
2022-10-07T03:24:14.493Z,99.99
2022-10-07T03:25:14.393Z,99.99
2022-10-07T03:26:14.413Z,99.99
2022-10-07T03:27:14.429Z,99.99
2022-10-07T03:28:14.534Z,99.99
2022-10-07T03:29:14.480Z,99.99
2022-10-07T03:30:14.495Z,99.99
2022-10-07T03:31:14.559Z,99.99
2022-10-07T03:32:14.535Z,99.99
2022-10-07T03:33:14.556Z,99.99
2022-10-07T03:34:14.577Z,99.99
2022-10-07T03:35:14.596Z,99.99
2022-10-07T03:36:14.616Z,99.99
2022-10-07T03:37:14.634Z,99.99
2022-10-07T03:38:14.654Z,99.99
2022-10-07T03:39:14.677Z,99.99
2022-10-07T03:40:14.709Z,99.99
2022-10-07T03:41:14.714Z,99.99
2022-10-07T03:42:14.735Z,99.99
2022-10-07T03:43:14.752Z,99.99
2022-10-07T03:44:14.776Z,99.99
2022-10-07T03:45:14.793Z,99.99
2022-10-07T03:46:14.856Z,99.99
2022-10-07T03:47:14.834Z,99.99
2022-10-07T03:48:14.856Z,99.99
2022-10-07T03:49:14.871Z,99.99
2022-10-07T03:50:14.895Z,99.99
2022-10-07T03:51:14.914Z,99.99
2022-10-07T03:52:14.957Z,99.99
2022-10-07T03:53:14.956Z,99.99
2022-10-07T03:54:14.975Z,99.99
2022-10-07T03:55:14.999Z,99.99
2022-10-07T03:56:15.024Z,99.99
2022-10-07T03:57:15.038Z,99.99
2022-10-07T03:58:15.063Z,99.99
2022-10-07T03:59:15.104Z,99.99
2022-10-07T04:00:15.110Z,99.99
2022-10-07T04:01:15.164Z,99.99
2022-10-07T04:02:15.137Z,99.99
2022-10-07T04:03:15.241Z,99.99
2022-10-07T04:04:15.179Z,99.99
2022-10-07T04:05:15.196Z,99.99
2022-10-07T04:06:15.215Z,99.99
2022-10-07T04:07:15.235Z,99.99
2022-10-07T04:08:15.256Z,99.99
2022-10-07T04:09:15.275Z,99.99
2022-10-07T04:10:15.303Z,99.99
2022-10-07T04:11:15.323Z,99.99
2022-10-07T04:12:15.357Z,99.99
2022-10-07T04:13:15.357Z,99.99
2022-10-07T04:14:15.378Z,99.99
2022-10-07T04:15:15.396Z,99.99
2022-10-07T04:16:15.443Z,99.99
2022-10-07T04:17:15.444Z,99.99
2022-10-07T04:18:15.460Z,99.99
2022-10-07T04:19:15.481Z,99.99
2022-10-07T04:20:15.503Z,99.99
2022-10-07T04:21:15.523Z,99.99
2022-10-07T04:22:15.551Z,99.99
2022-10-07T04:23:15.556Z,99.99
2022-10-07T04:24:15.592Z,99.99
2022-10-07T04:25:15.614Z,99.99
2022-10-07T04:26:15.647Z,99.99
2022-10-07T04:27:33.927Z,99.99
2022-10-07T04:28:15.743Z,99.99
2022-10-07T04:29:15.684Z,99.99
2022-10-07T04:30:15.704Z,99.99
2022-10-07T04:31:15.853Z,99.99
2022-10-07T04:32:15.745Z,99.99
2022-10-07T04:33:15.766Z,99.99
2022-10-07T04:34:15.788Z,99.99
2022-10-07T04:35:15.808Z,99.99
2022-10-07T04:36:15.829Z,99.99
2022-10-07T04:37:15.854Z,99.99
2022-10-07T04:38:15.869Z,99.99
2022-10-07T04:39:15.890Z,99.99
2022-10-07T04:40:15.916Z,99.99
2022-10-07T04:41:15.933Z,99.99
2022-10-07T04:42:15.955Z,99.99
2022-10-07T04:43:15.974Z,99.99
2022-10-07T04:44:15.995Z,99.99
2022-10-07T04:45:16.016Z,99.99
2022-10-07T04:46:16.087Z,99.99
2022-10-07T04:47:16.100Z,99.99
2022-10-07T04:48:16.078Z,99.99
2022-10-07T04:49:16.101Z,99.99
2022-10-07T04:50:16.114Z,99.99
2022-10-07T04:51:16.141Z,99.99
2022-10-07T04:52:16.161Z,99.99
2022-10-07T04:53:16.184Z,99.99
2022-10-07T04:54:16.245Z,99.99
2022-10-07T04:55:16.225Z,99.99
2022-10-07T04:56:16.262Z,99.99
2022-10-07T04:57:16.277Z,99.99
2022-10-07T04:58:16.283Z,99.99
2022-10-07T04:59:16.308Z,99.99
2022-10-07T05:00:16.326Z,99.99
2022-10-07T05:01:16.466Z,99.99
2022-10-07T05:02:16.459Z,99.99
2022-10-07T05:03:16.392Z,99.99
2022-10-07T05:04:16.408Z,99.99
2022-10-07T05:05:16.434Z,99.99
2022-10-07T05:06:16.453Z,99.99
2022-10-07T05:07:16.477Z,99.99
2022-10-07T05:08:16.496Z,99.99
2022-10-07T05:09:16.524Z,99.99
2022-10-07T05:10:16.539Z,99.99
2022-10-07T05:11:16.560Z,99.99
2022-10-07T05:12:16.580Z,99.99
2022-10-07T05:13:16.602Z,99.99
2022-10-07T05:14:16.616Z,99.99
2022-10-07T05:15:16.641Z,99.99
2022-10-07T05:16:16.697Z,99.99
2022-10-07T05:17:16.691Z,99.99
2022-10-07T05:18:16.706Z,99.99
2022-10-07T05:19:16.729Z,99.99
2022-10-07T05:20:16.745Z,99.99
2022-10-07T05:21:16.770Z,99.99
2022-10-07T05:22:16.787Z,99.99
2022-10-07T05:23:16.813Z,99.99
2022-10-07T05:24:16.830Z,99.99
2022-10-07T05:25:16.857Z,99.99
2022-10-07T05:26:16.866Z,99.99
2022-10-07T05:27:16.889Z,99.99
2022-10-07T05:28:16.959Z,99.99
2022-10-07T05:29:16.939Z,99.99
2022-10-07T05:30:16.954Z,99.99
2022-10-07T05:31:17.028Z,99.99
2022-10-07T05:32:16.996Z,99.99
2022-10-07T05:33:17.018Z,99.99
2022-10-07T05:34:17.041Z,99.99
2022-10-07T05:35:17.056Z,99.99
2022-10-07T05:36:17.077Z,99.99
2022-10-07T05:37:17.102Z,99.99
2022-10-07T05:38:17.118Z,99.99
2022-10-07T05:39:17.140Z,99.99
2022-10-07T05:40:17.160Z,99.99
2022-10-07T05:41:17.182Z,99.99
2022-10-07T05:42:17.200Z,99.99
2022-10-07T05:43:17.223Z,99.99
2022-10-07T05:44:17.238Z,99.99
2022-10-07T05:45:17.263Z,99.99
2022-10-07T05:46:17.348Z,99.99
2022-10-07T05:47:17.306Z,99.99
2022-10-07T05:48:17.325Z,99.99
2022-10-07T05:49:17.356Z,99.99
2022-10-07T05:50:17.365Z,99.99
2022-10-07T05:51:17.402Z,99.99
2022-10-07T05:52:17.406Z,99.99
2022-10-07T05:53:17.427Z,99.99
2022-10-07T05:54:17.444Z,99.99
2022-10-07T05:55:17.470Z,99.99
2022-10-07T05:56:17.494Z,99.99
2022-10-07T05:57:17.510Z,99.99
2022-10-07T05:58:17.527Z,99.99
2022-10-07T05:59:17.550Z,99.99
2022-10-07T06:00:17.570Z,99.99
2022-10-07T06:01:17.592Z,99.99
2022-10-07T06:02:17.706Z,99.99
2022-10-07T06:03:17.669Z,99.99
2022-10-07T06:04:17.651Z,99.99
2022-10-07T06:05:17.672Z,99.99
2022-10-07T06:06:17.689Z,99.99
2022-10-07T06:07:20.963Z,99.99
2022-10-07T06:08:17.749Z,99.99
2022-10-07T06:09:17.758Z,99.99
2022-10-07T06:10:17.773Z,99.99
2022-10-07T06:11:17.799Z,99.99
2022-10-07T06:12:17.816Z,99.99
2022-10-07T06:13:17.840Z,99.99
2022-10-07T06:14:17.858Z,99.99
2022-10-07T06:15:17.880Z,99.99
2022-10-07T06:16:17.931Z,99.99
2022-10-07T06:17:17.920Z,99.99
2022-10-07T06:18:17.937Z,99.99
2022-10-07T06:19:17.960Z,99.99
2022-10-07T06:20:17.984Z,99.99
2022-10-07T06:21:18.012Z,99.99
2022-10-07T06:22:18.022Z,99.99
2022-10-07T06:23:18.042Z,99.99
2022-10-07T06:24:18.063Z,99.99
2022-10-07T06:25:18.085Z,99.99
2022-10-07T06:26:18.101Z,99.99
2022-10-07T06:27:18.127Z,99.99
2022-10-07T06:28:18.184Z,99.99
2022-10-07T06:29:18.167Z,99.99
2022-10-07T06:30:18.187Z,99.99
2022-10-07T06:31:18.276Z,99.99
2022-10-07T06:32:18.228Z,99.99
2022-10-07T06:33:18.252Z,99.99
2022-10-07T06:34:18.266Z,99.99
2022-10-07T06:35:18.293Z,99.99
2022-10-07T06:36:18.316Z,99.99
2022-10-07T06:37:18.334Z,99.99
2022-10-07T06:38:18.355Z,99.99
2022-10-07T06:39:18.379Z,99.99
2022-10-07T06:40:18.391Z,99.99
2022-10-07T06:41:18.434Z,99.99
2022-10-07T06:42:18.435Z,99.99
2022-10-07T06:43:18.455Z,99.99
2022-10-07T06:44:18.481Z,99.99
2022-10-07T06:45:18.521Z,99.99
2022-10-07T06:46:18.578Z,99.99
2022-10-07T06:47:18.541Z,99.99
2022-10-07T06:48:18.563Z,99.99
2022-10-07T06:49:18.587Z,99.99
2022-10-07T06:50:18.601Z,99.99
2022-10-07T06:51:18.625Z,99.99
2022-10-07T06:52:18.646Z,99.99
2022-10-07T06:53:18.665Z,99.99
2022-10-07T06:54:18.687Z,99.99
2022-10-07T06:55:18.711Z,99.99
2022-10-07T06:56:18.733Z,99.99
2022-10-07T06:57:44.199Z,99.99
2022-10-07T06:58:18.770Z,99.99
2022-10-07T06:59:18.794Z,99.99
2022-10-07T07:00:18.815Z,99.99
2022-10-07T07:01:18.873Z,99.99
2022-10-07T07:02:18.901Z,99.99
2022-10-07T07:03:18.879Z,99.99
2022-10-07T07:04:18.899Z,99.99
2022-10-07T07:05:18.922Z,99.99
2022-10-07T07:06:18.942Z,99.99
2022-10-07T07:07:18.961Z,99.99
2022-10-07T07:08:19.007Z,99.99
2022-10-07T07:09:19.004Z,99.99
2022-10-07T07:10:19.028Z,99.99
2022-10-07T07:11:19.043Z,99.99
2022-10-07T07:12:19.079Z,99.99
2022-10-07T07:13:19.110Z,99.99
2022-10-07T07:14:19.112Z,99.99
2022-10-07T07:15:19.131Z,99.99
2022-10-07T07:16:19.205Z,99.99
2022-10-07T07:17:19.176Z,99.99
2022-10-07T07:18:19.197Z,99.99
2022-10-07T07:19:19.218Z,99.99
2022-10-07T07:20:19.241Z,99.99
2022-10-07T07:21:19.258Z,99.99
2022-10-07T07:22:19.287Z,99.99
2022-10-07T07:23:19.304Z,99.99
2022-10-07T07:24:19.349Z,99.99
2022-10-07T07:25:19.350Z,99.99
2022-10-07T07:26:19.369Z,99.99
2022-10-07T07:27:19.390Z,99.99
2022-10-07T07:28:19.466Z,99.99
2022-10-07T07:29:19.439Z,99.99
2022-10-07T07:30:19.455Z,99.99
2022-10-07T07:31:19.548Z,99.99
2022-10-07T07:32:19.514Z,99.99
2022-10-07T07:33:19.526Z,99.99
2022-10-07T07:34:19.544Z,99.99
2022-10-07T07:35:19.568Z,99.99
2022-10-07T07:36:19.589Z,99.99
2022-10-07T07:37:19.611Z,99.99
2022-10-07T07:38:23.379Z,99.99
2022-10-07T07:39:19.653Z,99.99
2022-10-07T07:40:19.678Z,99.99
2022-10-07T07:41:19.701Z,99.99
2022-10-07T07:42:19.719Z,99.99
2022-10-07T07:43:19.768Z,99.99
2022-10-07T07:44:19.766Z,99.99
2022-10-07T07:45:19.788Z,99.99
2022-10-07T07:46:19.841Z,99.99
2022-10-07T07:47:19.830Z,99.99
2022-10-07T07:48:19.850Z,99.99
2022-10-07T07:49:19.873Z,99.99
2022-10-07T07:50:19.896Z,99.99
2022-10-07T07:51:19.921Z,99.99
2022-10-07T07:52:19.942Z,99.99
2022-10-07T07:53:19.969Z,99.99
2022-10-07T07:54:19.985Z,99.99
2022-10-07T07:55:20.010Z,99.99
2022-10-07T07:56:20.128Z,99.99
2022-10-07T07:57:20.054Z,99.99
2022-10-07T07:58:20.078Z,99.99
2022-10-07T07:59:20.100Z,99.99
2022-10-07T08:00:20.129Z,99.99
2022-10-07T08:01:20.182Z,99.99
2022-10-07T08:02:20.222Z,99.99
2022-10-07T08:03:20.189Z,99.99
2022-10-07T08:04:20.213Z,99.99
2022-10-07T08:05:23.927Z,99.99
2022-10-07T08:06:27.415Z,99.99
2022-10-07T08:08:24.748Z,99.99
2022-10-07T08:09:24.291Z,99.99
2022-10-07T08:10:24.308Z,99.99
2022-10-07T08:11:24.331Z,99.99
2022-10-07T08:12:24.350Z,99.99
2022-10-07T08:13:24.372Z,99.99
2022-10-07T08:14:24.402Z,99.99
2022-10-07T08:15:24.419Z,99.99
2022-10-07T08:16:24.442Z,99.66
2022-10-07T08:17:24.460Z,99.18
2022-10-07T08:18:24.486Z,99.23
2022-10-07T08:19:24.514Z,98.28
2022-10-07T08:20:24.532Z,98.37
2022-10-07T08:21:24.548Z,97.61
2022-10-07T08:22:24.588Z,97.13
2022-10-07T08:23:24.606Z,97.32
2022-10-07T08:24:24.625Z,97.42
2022-10-07T08:25:24.647Z,96.94
2022-10-07T08:26:24.675Z,96.46
2022-10-07T08:27:24.703Z,96.42
2022-10-07T08:28:24.759Z,96.22
2022-10-07T08:29:24.740Z,95.65
2022-10-07T08:30:24.764Z,95.65
2022-10-07T08:31:24.825Z,95.07
2022-10-07T08:32:24.810Z,94.89
2022-10-07T08:33:24.831Z,94.98
2022-10-07T08:34:24.871Z,95.27
2022-10-07T08:35:24.878Z,94.22
2022-10-07T08:36:24.903Z,94.70
2022-10-07T08:37:24.926Z,94.12
2022-10-07T08:38:24.950Z,93.93
2022-10-07T08:39:24.973Z,93.31
2022-10-07T08:40:24.996Z,93.21
2022-10-07T08:41:25.014Z,92.83
2022-10-07T08:42:25.043Z,92.25
2022-10-07T08:43:25.065Z,92.64
2022-10-07T08:44:25.090Z,92.25
2022-10-07T08:45:25.113Z,91.88
2022-10-07T08:46:25.203Z,91.78
2022-10-07T08:47:25.170Z,91.20
2022-10-07T08:48:25.182Z,91.06
2022-10-07T08:49:25.207Z,90.20
2022-10-07T08:50:25.230Z,89.48
2022-10-07T08:51:25.253Z,89.43
2022-10-07T08:52:25.294Z,89.24
2022-10-07T08:53:25.302Z,88.67
2022-10-07T08:54:25.325Z,88.09
2022-10-07T08:55:25.350Z,87.52
2022-10-07T08:56:25.373Z,85.80
2022-10-07T08:57:25.398Z,85.80
2022-10-07T08:58:25.422Z,85.89
2022-10-07T08:59:25.447Z,86.18
2022-10-07T09:00:25.467Z,86.66
2022-10-07T09:01:25.531Z,86.66
2022-10-07T09:02:25.548Z,86.94
2022-10-07T09:03:25.540Z,86.28
2022-10-07T09:04:25.563Z,85.71
2022-10-07T09:05:25.581Z,85.89
2022-10-07T09:06:25.611Z,85.84
2022-10-07T09:07:25.638Z,84.79
2022-10-07T09:08:25.664Z,85.51
2022-10-07T09:09:25.681Z,85.65
2022-10-07T09:10:25.709Z,85.27
2022-10-07T09:11:25.758Z,84.98
2022-10-07T09:12:25.753Z,85.65
2022-10-07T09:13:25.778Z,84.88
2022-10-07T09:14:25.806Z,84.79
2022-10-07T09:15:25.834Z,85.36
2022-10-07T09:16:25.849Z,85.36
2022-10-07T09:17:25.872Z,85.17
2022-10-07T09:18:25.899Z,83.83
2022-10-07T09:19:25.922Z,83.93
2022-10-07T09:20:25.945Z,84.79
2022-10-07T09:21:25.972Z,84.12
2022-10-07T09:22:25.995Z,84.74
2022-10-07T09:23:26.021Z,84.45
2022-10-07T09:24:26.044Z,83.87
2022-10-07T09:25:26.067Z,83.59
2022-10-07T09:26:26.097Z,83.30
2022-10-07T09:27:26.114Z,83.11
2022-10-07T09:28:26.189Z,83.39
2022-10-07T09:29:26.163Z,82.63
2022-10-07T09:30:26.189Z,83.30
2022-10-07T09:31:26.348Z,82.43
2022-10-07T09:32:26.232Z,82.43
2022-10-07T09:33:26.263Z,82.15
2022-10-07T09:34:26.288Z,83.01
2022-10-07T09:35:26.309Z,82.73
2022-10-07T09:36:26.329Z,81.86
2022-10-07T09:37:26.359Z,81.10
2022-10-07T09:38:26.382Z,81.62
2022-10-07T09:39:26.405Z,81.20
2022-10-07T09:40:26.435Z,81.38
2022-10-07T09:41:30.929Z,81.52
2022-10-07T09:42:26.481Z,81.33
2022-10-07T09:43:26.502Z,81.52
2022-10-07T09:44:26.538Z,81.43
2022-10-07T09:45:26.560Z,81.43
2022-10-07T09:46:26.642Z,81.13
2022-10-07T09:47:26.607Z,81.33
2022-10-07T09:48:26.629Z,81.23
2022-10-07T09:49:26.650Z,80.76
2022-10-07T09:50:26.685Z,80.94
2022-10-07T09:51:26.699Z,80.27
2022-10-07T09:52:26.725Z,79.89
2022-10-07T09:53:26.752Z,80.27
2022-10-07T09:54:26.777Z,80.08
2022-10-07T09:55:26.804Z,80.08
2022-10-07T09:56:26.825Z,79.60
2022-10-07T09:57:26.847Z,79.13
2022-10-07T09:58:26.876Z,79.41
2022-10-07T09:59:26.900Z,79.41
2022-10-07T10:00:26.919Z,78.93
2022-10-07T10:01:26.943Z,78.93
2022-10-07T10:02:27.070Z,78.84
2022-10-07T10:03:27.090Z,79.22
2022-10-07T10:04:27.022Z,80.27
2022-10-07T10:05:27.045Z,80.08
2022-10-07T10:06:27.073Z,79.32
2022-10-07T10:07:27.096Z,78.74
2022-10-07T10:08:27.122Z,78.78
2022-10-07T10:09:27.147Z,78.93
2022-10-07T10:10:27.171Z,78.11
2022-10-07T10:11:27.196Z,77.92
2022-10-07T10:12:27.219Z,77.92
2022-10-07T10:13:27.240Z,78.11
2022-10-07T10:14:27.275Z,77.92
2022-10-07T10:15:27.296Z,78.11
2022-10-07T10:16:27.350Z,78.11
2022-10-07T10:17:27.348Z,77.25
2022-10-07T10:18:27.375Z,77.53
2022-10-07T10:19:27.399Z,77.73
2022-10-07T10:20:27.419Z,77.73
2022-10-07T10:21:27.489Z,77.34
2022-10-07T10:22:27.471Z,77.34
2022-10-07T10:23:27.495Z,77.25
2022-10-07T10:24:27.519Z,77.63
2022-10-07T10:25:27.542Z,76.67
2022-10-07T10:26:32.683Z,76.48
2022-10-07T10:27:27.599Z,76.77
2022-10-07T10:28:27.659Z,77.09
2022-10-07T10:29:27.652Z,77.58
2022-10-07T10:30:27.669Z,77.29
2022-10-07T10:31:27.708Z,77.38
2022-10-07T10:32:27.721Z,77.38
2022-10-07T10:33:27.745Z,77.19
2022-10-07T10:34:27.776Z,77.00
2022-10-07T10:35:27.799Z,76.62
2022-10-07T10:36:27.825Z,76.84
2022-10-07T10:37:27.847Z,76.23
2022-10-07T10:38:27.873Z,76.17
2022-10-07T10:39:27.903Z,74.44
2022-10-07T10:40:27.924Z,74.60
2022-10-07T10:41:27.953Z,74.44
2022-10-07T10:42:27.977Z,74.64
2022-10-07T10:43:27.998Z,74.44
2022-10-07T10:44:28.023Z,74.54
2022-10-07T10:45:28.050Z,74.35
2022-10-07T10:46:28.137Z,74.93
2022-10-07T10:47:28.103Z,74.64
2022-10-07T10:48:28.126Z,74.26
2022-10-07T10:49:28.153Z,75.50
2022-10-07T10:50:28.181Z,74.73
2022-10-07T10:51:28.269Z,75.21
2022-10-07T10:52:28.232Z,75.79
2022-10-07T10:53:28.255Z,75.79
2022-10-07T10:54:28.281Z,75.70
2022-10-07T10:55:28.309Z,75.50
2022-10-07T10:56:28.332Z,75.21
2022-10-07T10:57:28.360Z,74.77
2022-10-07T10:58:28.383Z,74.10
2022-10-07T10:59:28.410Z,74.19
2022-10-07T11:00:28.436Z,74.10
2022-10-07T11:01:28.520Z,74.29
2022-10-07T11:02:28.522Z,73.81
2022-10-07T11:03:28.516Z,73.43
2022-10-07T11:04:28.539Z,73.33
2022-10-07T11:05:28.567Z,73.52
2022-10-07T11:06:28.603Z,73.91
2022-10-07T11:07:28.620Z,73.85
2022-10-07T11:08:28.648Z,73.08
2022-10-07T11:09:30.617Z,71.98
2022-10-07T11:10:28.699Z,71.61
2022-10-07T11:11:28.721Z,72.18
2022-10-07T11:12:28.749Z,72.95
2022-10-07T11:13:29.646Z,72.56
2022-10-07T11:14:28.802Z,72.28
2022-10-07T11:15:28.831Z,72.37
2022-10-07T11:16:28.857Z,72.95
2022-10-07T11:17:28.878Z,73.18
2022-10-07T11:18:28.905Z,72.89
2022-10-07T11:19:28.930Z,72.41
2022-10-07T11:20:28.958Z,72.50
2022-10-07T11:21:28.985Z,71.93
2022-10-07T11:22:29.008Z,71.48
2022-10-07T11:23:29.049Z,71.39
2022-10-07T11:24:29.065Z,71.96
2022-10-07T11:25:29.091Z,71.58
2022-10-07T11:26:32.413Z,71.67
2022-10-07T11:27:29.143Z,71.77
2022-10-07T11:28:29.225Z,71.10
2022-10-07T11:29:29.196Z,71.19
2022-10-07T11:30:29.226Z,71.48
2022-10-07T11:31:29.279Z,71.67
2022-10-07T11:32:29.278Z,71.39
2022-10-07T11:33:29.305Z,71.67
2022-10-07T11:34:29.335Z,69.85
2022-10-07T11:35:29.361Z,70.43
2022-10-07T11:36:29.384Z,70.52
2022-10-07T11:37:29.414Z,70.23
2022-10-07T11:38:29.438Z,70.52
2022-10-07T11:39:29.467Z,70.04
2022-10-07T11:40:29.493Z,70.43
2022-10-07T11:41:29.518Z,70.33
2022-10-07T11:42:29.548Z,70.62
2022-10-07T11:43:29.579Z,70.72
2022-10-07T11:44:29.600Z,70.33
2022-10-07T11:45:29.632Z,70.43
2022-10-07T11:46:29.692Z,70.43
2022-10-07T11:47:29.684Z,69.75
2022-10-07T11:48:29.708Z,70.04
2022-10-07T11:49:29.737Z,69.85
2022-10-07T11:50:29.763Z,69.18
2022-10-07T11:51:29.789Z,68.89
2022-10-07T11:52:29.815Z,69.95
2022-10-07T11:53:29.844Z,70.43
2022-10-07T11:54:29.869Z,69.95
2022-10-07T11:55:29.913Z,69.95
2022-10-07T11:56:29.923Z,69.75
2022-10-07T11:57:29.947Z,70.14
2022-10-07T11:58:29.977Z,69.66
2022-10-07T11:59:30.001Z,69.95
2022-10-07T12:00:30.031Z,70.14
2022-10-07T12:01:30.056Z,70.04
2022-10-07T12:02:30.317Z,70.14
2022-10-07T12:03:30.173Z,70.04
2022-10-07T12:04:30.136Z,69.85
2022-10-07T12:05:30.163Z,69.56
2022-10-07T12:06:30.191Z,69.56
2022-10-07T12:07:30.218Z,70.23
2022-10-07T12:08:30.240Z,69.85
2022-10-07T12:09:30.270Z,69.75
2022-10-07T12:10:30.300Z,70.14
2022-10-07T12:11:30.329Z,68.41
2022-10-07T12:12:30.349Z,68.70
2022-10-07T12:13:30.378Z,68.60
2022-10-07T12:14:30.404Z,68.51
2022-10-07T12:15:30.430Z,70.14
2022-10-07T12:16:30.524Z,70.23
2022-10-07T12:17:30.501Z,70.52
2022-10-07T12:18:30.513Z,69.95
2022-10-07T12:19:30.544Z,69.37
2022-10-07T12:20:30.568Z,69.27
2022-10-07T12:21:30.594Z,69.95
2022-10-07T12:22:30.621Z,69.27
2022-10-07T12:23:30.646Z,68.73
2022-10-07T12:24:30.672Z,68.25
2022-10-07T12:25:30.701Z,68.51
2022-10-07T12:26:30.726Z,68.54
2022-10-07T12:27:30.763Z,69.18
2022-10-07T12:28:30.825Z,69.37
2022-10-07T12:29:30.811Z,69.50
2022-10-07T12:30:30.830Z,69.40
2022-10-07T12:31:30.981Z,68.25
2022-10-07T12:32:30.890Z,68.35
2022-10-07T12:33:30.916Z,68.63
2022-10-07T12:34:30.943Z,67.77
2022-10-07T12:35:30.970Z,68.54
2022-10-07T12:36:31.001Z,68.98
2022-10-07T12:37:31.021Z,68.79
2022-10-07T12:38:31.053Z,68.41
2022-10-07T12:39:31.077Z,68.31
2022-10-07T12:40:31.104Z,68.51
2022-10-07T12:41:31.131Z,68.70
2022-10-07T12:42:31.157Z,68.54
2022-10-07T12:43:31.195Z,68.35
2022-10-07T12:44:31.220Z,68.44
2022-10-07T12:45:31.301Z,67.38
2022-10-07T12:46:31.266Z,68.41
2022-10-07T12:47:31.289Z,68.73
2022-10-07T12:48:31.318Z,68.44
2022-10-07T12:49:31.344Z,68.02
2022-10-07T12:50:31.372Z,68.06
2022-10-07T12:51:31.400Z,67.83
2022-10-07T12:52:31.425Z,68.15
2022-10-07T12:53:31.458Z,68.73
2022-10-07T12:54:31.481Z,68.44
2022-10-07T12:55:31.508Z,68.83
2022-10-07T12:56:31.535Z,68.35
2022-10-07T12:57:31.561Z,68.25
2022-10-07T12:58:31.589Z,68.54
2022-10-07T12:59:31.613Z,68.15
2022-10-07T13:00:31.642Z,67.58
2022-10-07T13:01:31.781Z,67.96
2022-10-07T13:02:31.787Z,67.58
2022-10-07T13:03:31.722Z,67.86
2022-10-07T13:04:31.748Z,66.04
2022-10-07T13:05:31.782Z,66.71
2022-10-07T13:06:31.802Z,67.10
2022-10-07T13:07:31.826Z,66.14
2022-10-07T13:08:31.857Z,67.00
2022-10-07T13:09:31.882Z,67.19
2022-10-07T13:10:31.911Z,68.06
2022-10-07T13:11:31.942Z,67.00
2022-10-07T13:12:31.965Z,66.33
2022-10-07T13:13:31.992Z,66.49
2022-10-07T13:14:32.031Z,67.07
2022-10-07T13:15:32.046Z,67.54
2022-10-07T13:16:32.136Z,67.93
2022-10-07T13:17:32.099Z,67.25
2022-10-07T13:18:32.121Z,66.68
2022-10-07T13:19:32.149Z,66.30
2022-10-07T13:20:32.177Z,66.58
2022-10-07T13:21:32.205Z,67.07
2022-10-07T13:22:32.228Z,67.07
2022-10-07T13:23:32.261Z,66.97
2022-10-07T13:24:32.282Z,67.35
2022-10-07T13:25:32.314Z,67.74
2022-10-07T13:26:32.343Z,67.64
2022-10-07T13:27:32.365Z,67.77
2022-10-07T13:28:33.384Z,67.86
2022-10-07T13:29:32.821Z,67.93
2022-10-07T13:30:33.351Z,67.77